sensor_id;sensor_type;location;lat;lon;timestamp;P1;durP1;ratioP1;P2;durP2;ratioP2
32705;SDS011;19094;50.972;3.538;2022-12-07T00:03:42;13.00;;;5.18;;
32705;SDS011;19094;50.972;3.538;2022-12-07T00:06:10;9.85;;;4.80;;
32705;SDS011;19094;50.972;3.538;2022-12-07T00:08:36;7.55;;;3.97;;
32705;SDS011;19094;50.972;3.538;2022-12-07T00:11:02;15.52;;;3.97;;
32705;SDS011;19094;50.972;3.538;2022-12-07T00:13:31;9.90;;;4.05;;
32705;SDS011;19094;50.972;3.538;2022-12-07T00:16:04;6.00;;;3.67;;
32705;SDS011;19094;50.972;3.538;2022-12-07T00:18:32;11.93;;;4.22;;
32705;SDS011;19094;50.972;3.538;2022-12-07T00:20:59;9.95;;;4.53;;
32705;SDS011;19094;50.972;3.538;2022-12-07T00:23:26;11.63;;;4.97;;
32705;SDS011;19094;50.972;3.538;2022-12-07T00:25:51;8.10;;;3.80;;
32705;SDS011;19094;50.972;3.538;2022-12-07T00:28:17;7.38;;;4.18;;
32705;SDS011;19094;50.972;3.538;2022-12-07T00:30:42;7.80;;;3.85;;
32705;SDS011;19094;50.972;3.538;2022-12-07T00:33:08;6.22;;;4.05;;
32705;SDS011;19094;50.972;3.538;2022-12-07T00:35:34;11.88;;;4.72;;
32705;SDS011;19094;50.972;3.538;2022-12-07T00:37:59;12.00;;;4.90;;
32705;SDS011;19094;50.972;3.538;2022-12-07T00:40:25;11.30;;;5.47;;
32705;SDS011;19094;50.972;3.538;2022-12-07T00:42:51;10.93;;;5.60;;
32705;SDS011;19094;50.972;3.538;2022-12-07T00:45:16;12.35;;;6.10;;
32705;SDS011;19094;50.972;3.538;2022-12-07T00:47:42;14.30;;;6.97;;
32705;SDS011;19094;50.972;3.538;2022-12-07T00:50:08;19.77;;;8.23;;
32705;SDS011;19094;50.972;3.538;2022-12-07T00:52:34;14.43;;;7.72;;
32705;SDS011;19094;50.972;3.538;2022-12-07T00:54:59;14.52;;;8.75;;
32705;SDS011;19094;50.972;3.538;2022-12-07T00:57:25;16.00;;;8.73;;
32705;SDS011;19094;50.972;3.538;2022-12-07T00:59:50;20.77;;;9.20;;
32705;SDS011;19094;50.972;3.538;2022-12-07T01:02:20;19.83;;;9.43;;
32705;SDS011;19094;50.972;3.538;2022-12-07T01:04:46;16.33;;;9.80;;
32705;SDS011;19094;50.972;3.538;2022-12-07T01:07:12;21.38;;;9.93;;
32705;SDS011;19094;50.972;3.538;2022-12-07T01:09:37;19.85;;;9.48;;
32705;SDS011;19094;50.972;3.538;2022-12-07T01:12:03;20.50;;;9.60;;
32705;SDS011;19094;50.972;3.538;2022-12-07T01:14:29;17.63;;;9.98;;
32705;SDS011;19094;50.972;3.538;2022-12-07T01:16:54;21.80;;;9.93;;
32705;SDS011;19094;50.972;3.538;2022-12-07T01:19:20;17.67;;;9.75;;
32705;SDS011;19094;50.972;3.538;2022-12-07T01:21:46;17.95;;;9.90;;
32705;SDS011;19094;50.972;3.538;2022-12-07T01:24:11;16.88;;;9.10;;
32705;SDS011;19094;50.972;3.538;2022-12-07T01:26:37;22.05;;;9.95;;
32705;SDS011;19094;50.972;3.538;2022-12-07T01:29:03;16.73;;;9.65;;
32705;SDS011;19094;50.972;3.538;2022-12-07T01:31:29;20.25;;;9.43;;
32705;SDS011;19094;50.972;3.538;2022-12-07T01:33:56;19.48;;;10.05;;
32705;SDS011;19094;50.972;3.538;2022-12-07T01:36:27;17.58;;;8.40;;
32705;SDS011;19094;50.972;3.538;2022-12-07T01:38:55;14.00;;;8.20;;
32705;SDS011;19094;50.972;3.538;2022-12-07T01:41:26;15.07;;;7.35;;
32705;SDS011;19094;50.972;3.538;2022-12-07T01:47:01;11.32;;;5.43;;
32705;SDS011;19094;50.972;3.538;2022-12-07T01:54:56;13.77;;;4.38;;
32705;SDS011;19094;50.972;3.538;2022-12-07T01:57:25;16.55;;;4.47;;
32705;SDS011;19094;50.972;3.538;2022-12-07T01:59:51;10.82;;;4.05;;
32705;SDS011;19094;50.972;3.538;2022-12-07T02:02:28;8.57;;;3.95;;
32705;SDS011;19094;50.972;3.538;2022-12-07T02:04:58;14.88;;;4.93;;
32705;SDS011;19094;50.972;3.538;2022-12-07T02:07:25;13.00;;;4.72;;
32705;SDS011;19094;50.972;3.538;2022-12-07T02:09:51;10.77;;;5.00;;
32705;SDS011;19094;50.972;3.538;2022-12-07T02:12:17;11.55;;;4.75;;
32705;SDS011;19094;50.972;3.538;2022-12-07T02:14:43;11.43;;;4.43;;
32705;SDS011;19094;50.972;3.538;2022-12-07T02:20:05;11.18;;;5.15;;
32705;SDS011;19094;50.972;3.538;2022-12-07T02:31:19;12.68;;;5.30;;
32705;SDS011;19094;50.972;3.538;2022-12-07T02:33:49;8.32;;;4.32;;
32705;SDS011;19094;50.972;3.538;2022-12-07T02:36:31;12.55;;;4.55;;
32705;SDS011;19094;50.972;3.538;2022-12-07T02:39:08;7.65;;;4.50;;
32705;SDS011;19094;50.972;3.538;2022-12-07T02:41:50;8.48;;;4.68;;
32705;SDS011;19094;50.972;3.538;2022-12-07T02:44:29;11.85;;;4.82;;
32705;SDS011;19094;50.972;3.538;2022-12-07T02:47:03;11.32;;;5.30;;
32705;SDS011;19094;50.972;3.538;2022-12-07T02:49:34;10.10;;;4.97;;
32705;SDS011;19094;50.972;3.538;2022-12-07T02:52:02;13.20;;;5.47;;
32705;SDS011;19094;50.972;3.538;2022-12-07T02:54:27;8.18;;;4.97;;
32705;SDS011;19094;50.972;3.538;2022-12-07T02:57:00;13.65;;;5.30;;
32705;SDS011;19094;50.972;3.538;2022-12-07T03:10:58;11.57;;;5.05;;
32705;SDS011;19094;50.972;3.538;2022-12-07T03:18:24;14.05;;;4.95;;
32705;SDS011;19094;50.972;3.538;2022-12-07T03:20:53;12.20;;;5.38;;
32705;SDS011;19094;50.972;3.538;2022-12-07T03:23:21;11.10;;;4.75;;
32705;SDS011;19094;50.972;3.538;2022-12-07T03:25:50;11.07;;;4.90;;
32705;SDS011;19094;50.972;3.538;2022-12-07T03:28:21;12.65;;;5.32;;
32705;SDS011;19094;50.972;3.538;2022-12-07T03:30:55;17.08;;;5.95;;
32705;SDS011;19094;50.972;3.538;2022-12-07T03:33:31;10.80;;;5.07;;
32705;SDS011;19094;50.972;3.538;2022-12-07T03:38:42;19.67;;;6.70;;
32705;SDS011;19094;50.972;3.538;2022-12-07T03:41:16;14.52;;;5.43;;
32705;SDS011;19094;50.972;3.538;2022-12-07T03:43:46;22.13;;;8.27;;
32705;SDS011;19094;50.972;3.538;2022-12-07T03:51:35;9.88;;;4.50;;
32705;SDS011;19094;50.972;3.538;2022-12-07T03:59:54;12.18;;;4.07;;
32705;SDS011;19094;50.972;3.538;2022-12-07T04:02:21;10.18;;;4.15;;
32705;SDS011;19094;50.972;3.538;2022-12-07T04:04:49;13.98;;;4.55;;
32705;SDS011;19094;50.972;3.538;2022-12-07T04:07:15;9.75;;;4.32;;
32705;SDS011;19094;50.972;3.538;2022-12-07T04:09:41;7.90;;;4.22;;
32705;SDS011;19094;50.972;3.538;2022-12-07T04:12:06;16.65;;;4.63;;
32705;SDS011;19094;50.972;3.538;2022-12-07T04:14:32;10.90;;;4.45;;
32705;SDS011;19094;50.972;3.538;2022-12-07T04:16:58;14.60;;;4.32;;
32705;SDS011;19094;50.972;3.538;2022-12-07T04:19:25;12.93;;;4.40;;
32705;SDS011;19094;50.972;3.538;2022-12-07T04:21:53;9.50;;;4.20;;
32705;SDS011;19094;50.972;3.538;2022-12-07T04:24:19;9.45;;;4.28;;
32705;SDS011;19094;50.972;3.538;2022-12-07T04:26:45;10.25;;;4.80;;
32705;SDS011;19094;50.972;3.538;2022-12-07T04:29:11;8.95;;;4.30;;
32705;SDS011;19094;50.972;3.538;2022-12-07T04:31:38;11.60;;;4.70;;
32705;SDS011;19094;50.972;3.538;2022-12-07T04:34:04;13.32;;;4.95;;
32705;SDS011;19094;50.972;3.538;2022-12-07T04:36:30;7.93;;;3.90;;
32705;SDS011;19094;50.972;3.538;2022-12-07T04:38:56;11.00;;;4.55;;
32705;SDS011;19094;50.972;3.538;2022-12-07T04:41:22;9.85;;;4.70;;
32705;SDS011;19094;50.972;3.538;2022-12-07T04:44:02;11.55;;;4.55;;
32705;SDS011;19094;50.972;3.538;2022-12-07T04:46:32;9.43;;;4.88;;
32705;SDS011;19094;50.972;3.538;2022-12-07T04:48:58;12.85;;;4.72;;
32705;SDS011;19094;50.972;3.538;2022-12-07T04:51:25;8.18;;;3.75;;
32705;SDS011;19094;50.972;3.538;2022-12-07T04:53:53;9.23;;;4.63;;
32705;SDS011;19094;50.972;3.538;2022-12-07T04:56:19;12.90;;;4.53;;
32705;SDS011;19094;50.972;3.538;2022-12-07T04:58:46;16.17;;;4.65;;
32705;SDS011;19094;50.972;3.538;2022-12-07T05:01:13;7.95;;;4.22;;
32705;SDS011;19094;50.972;3.538;2022-12-07T05:03:41;8.93;;;4.28;;
32705;SDS011;19094;50.972;3.538;2022-12-07T05:06:07;11.73;;;5.40;;
32705;SDS011;19094;50.972;3.538;2022-12-07T05:08:34;12.38;;;4.68;;
32705;SDS011;19094;50.972;3.538;2022-12-07T05:11:00;11.88;;;4.80;;
32705;SDS011;19094;50.972;3.538;2022-12-07T05:13:27;14.20;;;4.55;;
32705;SDS011;19094;50.972;3.538;2022-12-07T05:15:53;11.25;;;4.65;;
32705;SDS011;19094;50.972;3.538;2022-12-07T05:18:18;12.13;;;4.57;;
32705;SDS011;19094;50.972;3.538;2022-12-07T05:20:44;12.82;;;4.60;;
32705;SDS011;19094;50.972;3.538;2022-12-07T05:23:10;11.20;;;4.68;;
32705;SDS011;19094;50.972;3.538;2022-12-07T05:25:36;9.20;;;4.22;;
32705;SDS011;19094;50.972;3.538;2022-12-07T05:28:02;6.32;;;3.70;;
32705;SDS011;19094;50.972;3.538;2022-12-07T05:30:29;10.63;;;3.75;;
32705;SDS011;19094;50.972;3.538;2022-12-07T05:32:54;8.02;;;3.72;;
32705;SDS011;19094;50.972;3.538;2022-12-07T05:35:20;5.00;;;3.08;;
32705;SDS011;19094;50.972;3.538;2022-12-07T05:37:46;12.20;;;3.88;;
32705;SDS011;19094;50.972;3.538;2022-12-07T05:40:12;11.23;;;4.00;;
32705;SDS011;19094;50.972;3.538;2022-12-07T05:42:39;16.95;;;4.20;;
32705;SDS011;19094;50.972;3.538;2022-12-07T05:45:05;13.15;;;4.22;;
32705;SDS011;19094;50.972;3.538;2022-12-07T05:47:32;9.50;;;4.10;;
32705;SDS011;19094;50.972;3.538;2022-12-07T05:49:58;10.10;;;4.20;;
32705;SDS011;19094;50.972;3.538;2022-12-07T05:52:23;17.15;;;4.15;;
32705;SDS011;19094;50.972;3.538;2022-12-07T05:54:49;11.18;;;4.70;;
32705;SDS011;19094;50.972;3.538;2022-12-07T05:57:15;7.60;;;4.03;;
32705;SDS011;19094;50.972;3.538;2022-12-07T05:59:41;13.95;;;3.70;;
32705;SDS011;19094;50.972;3.538;2022-12-07T06:02:08;14.10;;;4.82;;
32705;SDS011;19094;50.972;3.538;2022-12-07T06:04:37;9.02;;;4.18;;
32705;SDS011;19094;50.972;3.538;2022-12-07T06:07:05;13.45;;;4.53;;
32705;SDS011;19094;50.972;3.538;2022-12-07T06:09:31;15.18;;;4.80;;
32705;SDS011;19094;50.972;3.538;2022-12-07T06:11:58;10.90;;;4.85;;
32705;SDS011;19094;50.972;3.538;2022-12-07T06:14:42;12.50;;;4.85;;
32705;SDS011;19094;50.972;3.538;2022-12-07T06:17:08;14.93;;;4.78;;
32705;SDS011;19094;50.972;3.538;2022-12-07T06:19:34;13.93;;;6.20;;
32705;SDS011;19094;50.972;3.538;2022-12-07T06:22:00;15.95;;;5.85;;
32705;SDS011;19094;50.972;3.538;2022-12-07T06:24:27;16.02;;;6.13;;
32705;SDS011;19094;50.972;3.538;2022-12-07T06:26:53;17.42;;;6.03;;
32705;SDS011;19094;50.972;3.538;2022-12-07T06:29:19;15.73;;;5.28;;
32705;SDS011;19094;50.972;3.538;2022-12-07T06:31:44;16.20;;;5.78;;
32705;SDS011;19094;50.972;3.538;2022-12-07T06:34:12;13.98;;;5.63;;
32705;SDS011;19094;50.972;3.538;2022-12-07T06:36:39;15.60;;;6.05;;
32705;SDS011;19094;50.972;3.538;2022-12-07T06:39:06;21.98;;;6.80;;
32705;SDS011;19094;50.972;3.538;2022-12-07T06:41:34;13.85;;;6.22;;
32705;SDS011;19094;50.972;3.538;2022-12-07T06:44:03;22.52;;;7.15;;
32705;SDS011;19094;50.972;3.538;2022-12-07T06:46:30;16.40;;;6.95;;
32705;SDS011;19094;50.972;3.538;2022-12-07T06:48:55;22.20;;;6.88;;
32705;SDS011;19094;50.972;3.538;2022-12-07T06:51:21;13.85;;;7.45;;
32705;SDS011;19094;50.972;3.538;2022-12-07T06:53:47;16.08;;;6.47;;
32705;SDS011;19094;50.972;3.538;2022-12-07T06:56:13;18.73;;;6.75;;
32705;SDS011;19094;50.972;3.538;2022-12-07T06:58:39;15.38;;;6.65;;
32705;SDS011;19094;50.972;3.538;2022-12-07T07:01:11;21.23;;;6.47;;
32705;SDS011;19094;50.972;3.538;2022-12-07T07:03:38;21.33;;;6.93;;
32705;SDS011;19094;50.972;3.538;2022-12-07T07:06:04;14.15;;;6.35;;
32705;SDS011;19094;50.972;3.538;2022-12-07T07:08:30;12.73;;;5.80;;
32705;SDS011;19094;50.972;3.538;2022-12-07T07:10:56;15.55;;;6.22;;
32705;SDS011;19094;50.972;3.538;2022-12-07T07:13:21;22.33;;;6.10;;
32705;SDS011;19094;50.972;3.538;2022-12-07T07:15:47;13.90;;;6.10;;
32705;SDS011;19094;50.972;3.538;2022-12-07T07:18:13;49.08;;;19.80;;
32705;SDS011;19094;50.972;3.538;2022-12-07T07:20:38;38.53;;;18.75;;
32705;SDS011;19094;50.972;3.538;2022-12-07T07:23:04;21.10;;;9.85;;
32705;SDS011;19094;50.972;3.538;2022-12-07T07:25:30;17.42;;;7.30;;
32705;SDS011;19094;50.972;3.538;2022-12-07T07:27:57;25.17;;;8.02;;
32705;SDS011;19094;50.972;3.538;2022-12-07T07:30:23;16.88;;;7.05;;
32705;SDS011;19094;50.972;3.538;2022-12-07T07:32:49;19.05;;;7.75;;
32705;SDS011;19094;50.972;3.538;2022-12-07T07:35:14;25.23;;;9.93;;
32705;SDS011;19094;50.972;3.538;2022-12-07T07:37:40;25.45;;;9.85;;
32705;SDS011;19094;50.972;3.538;2022-12-07T07:40:07;20.95;;;9.23;;
32705;SDS011;19094;50.972;3.538;2022-12-07T07:42:34;20.05;;;7.07;;
32705;SDS011;19094;50.972;3.538;2022-12-07T07:44:59;19.40;;;7.30;;
32705;SDS011;19094;50.972;3.538;2022-12-07T07:47:25;15.07;;;6.40;;
32705;SDS011;19094;50.972;3.538;2022-12-07T07:49:51;13.85;;;6.65;;
32705;SDS011;19094;50.972;3.538;2022-12-07T07:52:16;16.70;;;7.43;;
32705;SDS011;19094;50.972;3.538;2022-12-07T07:54:42;18.65;;;8.07;;
32705;SDS011;19094;50.972;3.538;2022-12-07T07:57:07;23.92;;;7.93;;
32705;SDS011;19094;50.972;3.538;2022-12-07T07:59:33;14.80;;;7.50;;
32705;SDS011;19094;50.972;3.538;2022-12-07T08:01:59;20.52;;;7.50;;
32705;SDS011;19094;50.972;3.538;2022-12-07T08:04:24;23.25;;;7.30;;
32705;SDS011;19094;50.972;3.538;2022-12-07T08:06:50;20.02;;;8.85;;
32705;SDS011;19094;50.972;3.538;2022-12-07T08:09:16;19.65;;;7.75;;
32705;SDS011;19094;50.972;3.538;2022-12-07T08:11:42;19.77;;;7.47;;
32705;SDS011;19094;50.972;3.538;2022-12-07T08:14:09;22.27;;;7.82;;
32705;SDS011;19094;50.972;3.538;2022-12-07T08:16:35;21.23;;;7.85;;
32705;SDS011;19094;50.972;3.538;2022-12-07T08:19:04;17.35;;;7.00;;
32705;SDS011;19094;50.972;3.538;2022-12-07T08:21:31;15.90;;;7.25;;
32705;SDS011;19094;50.972;3.538;2022-12-07T08:23:57;17.92;;;7.45;;
32705;SDS011;19094;50.972;3.538;2022-12-07T08:26:22;21.27;;;8.98;;
32705;SDS011;19094;50.972;3.538;2022-12-07T08:28:48;21.92;;;6.75;;
32705;SDS011;19094;50.972;3.538;2022-12-07T08:31:16;19.38;;;6.88;;
32705;SDS011;19094;50.972;3.538;2022-12-07T08:33:47;17.58;;;6.35;;
32705;SDS011;19094;50.972;3.538;2022-12-07T08:36:13;17.33;;;6.78;;
32705;SDS011;19094;50.972;3.538;2022-12-07T08:38:40;13.90;;;5.78;;
32705;SDS011;19094;50.972;3.538;2022-12-07T08:41:06;24.20;;;7.38;;
32705;SDS011;19094;50.972;3.538;2022-12-07T08:43:33;15.55;;;5.88;;
32705;SDS011;19094;50.972;3.538;2022-12-07T08:46:09;17.30;;;6.50;;
32705;SDS011;19094;50.972;3.538;2022-12-07T08:49:13;19.45;;;7.13;;
32705;SDS011;19094;50.972;3.538;2022-12-07T08:51:39;15.45;;;6.15;;
32705;SDS011;19094;50.972;3.538;2022-12-07T08:54:07;18.13;;;6.90;;
32705;SDS011;19094;50.972;3.538;2022-12-07T08:56:36;17.50;;;6.10;;
32705;SDS011;19094;50.972;3.538;2022-12-07T08:59:03;19.88;;;7.93;;
32705;SDS011;19094;50.972;3.538;2022-12-07T09:01:29;24.55;;;8.90;;
32705;SDS011;19094;50.972;3.538;2022-12-07T09:03:55;18.25;;;6.90;;
32705;SDS011;19094;50.972;3.538;2022-12-07T09:06:21;21.88;;;7.30;;
32705;SDS011;19094;50.972;3.538;2022-12-07T09:08:47;21.90;;;6.93;;
32705;SDS011;19094;50.972;3.538;2022-12-07T09:11:17;23.42;;;7.03;;
32705;SDS011;19094;50.972;3.538;2022-12-07T09:13:43;22.75;;;8.23;;
32705;SDS011;19094;50.972;3.538;2022-12-07T09:16:08;17.30;;;7.28;;
32705;SDS011;19094;50.972;3.538;2022-12-07T09:18:34;22.98;;;9.55;;
32705;SDS011;19094;50.972;3.538;2022-12-07T09:20:59;16.98;;;8.20;;
32705;SDS011;19094;50.972;3.538;2022-12-07T09:23:25;15.38;;;6.78;;
32705;SDS011;19094;50.972;3.538;2022-12-07T09:25:51;14.57;;;6.03;;
32705;SDS011;19094;50.972;3.538;2022-12-07T09:28:17;16.75;;;6.45;;
32705;SDS011;19094;50.972;3.538;2022-12-07T09:30:46;11.95;;;5.40;;
32705;SDS011;19094;50.972;3.538;2022-12-07T09:33:12;15.57;;;5.88;;
32705;SDS011;19094;50.972;3.538;2022-12-07T09:35:43;15.73;;;6.50;;
32705;SDS011;19094;50.972;3.538;2022-12-07T09:38:13;21.23;;;7.70;;
32705;SDS011;19094;50.972;3.538;2022-12-07T09:40:39;21.17;;;7.18;;
32705;SDS011;19094;50.972;3.538;2022-12-07T09:43:10;16.80;;;7.15;;
32705;SDS011;19094;50.972;3.538;2022-12-07T09:45:38;19.02;;;7.03;;
32705;SDS011;19094;50.972;3.538;2022-12-07T09:48:04;18.15;;;6.97;;
32705;SDS011;19094;50.972;3.538;2022-12-07T09:50:31;12.15;;;5.82;;
32705;SDS011;19094;50.972;3.538;2022-12-07T09:58:28;15.43;;;5.68;;
32705;SDS011;19094;50.972;3.538;2022-12-07T10:01:16;18.52;;;5.60;;
32705;SDS011;19094;50.972;3.538;2022-12-07T10:03:48;12.68;;;4.65;;
32705;SDS011;19094;50.972;3.538;2022-12-07T10:08:45;16.10;;;4.43;;
32705;SDS011;19094;50.972;3.538;2022-12-07T10:11:11;12.90;;;4.22;;
32705;SDS011;19094;50.972;3.538;2022-12-07T10:13:38;12.45;;;4.13;;
32705;SDS011;19094;50.972;3.538;2022-12-07T10:16:05;13.30;;;4.88;;
32705;SDS011;19094;50.972;3.538;2022-12-07T10:18:53;15.68;;;5.25;;
32705;SDS011;19094;50.972;3.538;2022-12-07T10:21:25;18.02;;;5.32;;
32705;SDS011;19094;50.972;3.538;2022-12-07T10:24:02;18.63;;;6.68;;
32705;SDS011;19094;50.972;3.538;2022-12-07T10:26:32;20.92;;;5.63;;
32705;SDS011;19094;50.972;3.538;2022-12-07T10:29:16;21.75;;;6.93;;
32705;SDS011;19094;50.972;3.538;2022-12-07T10:31:45;24.27;;;8.30;;
32705;SDS011;19094;50.972;3.538;2022-12-07T10:34:25;25.05;;;6.18;;
32705;SDS011;19094;50.972;3.538;2022-12-07T10:39:56;22.70;;;7.57;;
32705;SDS011;19094;50.972;3.538;2022-12-07T10:42:26;11.52;;;4.40;;
32705;SDS011;19094;50.972;3.538;2022-12-07T10:45:08;18.52;;;4.88;;
32705;SDS011;19094;50.972;3.538;2022-12-07T10:47:38;11.23;;;3.95;;
32705;SDS011;19094;50.972;3.538;2022-12-07T10:50:41;17.55;;;3.80;;
32705;SDS011;19094;50.972;3.538;2022-12-07T10:53:38;12.60;;;4.10;;
32705;SDS011;19094;50.972;3.538;2022-12-07T10:59:01;12.52;;;3.97;;
32705;SDS011;19094;50.972;3.538;2022-12-07T11:07:07;14.85;;;4.00;;
32705;SDS011;19094;50.972;3.538;2022-12-07T11:15:21;9.93;;;3.00;;
32705;SDS011;19094;50.972;3.538;2022-12-07T11:24:03;8.63;;;3.50;;
32705;SDS011;19094;50.972;3.538;2022-12-07T11:30:03;11.88;;;3.42;;
32705;SDS011;19094;50.972;3.538;2022-12-07T11:38:17;14.13;;;3.35;;
32705;SDS011;19094;50.972;3.538;2022-12-07T11:40:51;7.18;;;2.50;;
32705;SDS011;19094;50.972;3.538;2022-12-07T11:43:23;10.57;;;3.22;;
32705;SDS011;19094;50.972;3.538;2022-12-07T11:45:58;7.88;;;2.20;;
32705;SDS011;19094;50.972;3.538;2022-12-07T11:48:41;8.30;;;2.30;;
32705;SDS011;19094;50.972;3.538;2022-12-07T11:51:15;10.10;;;2.47;;
32705;SDS011;19094;50.972;3.538;2022-12-07T11:53:56;4.00;;;1.95;;
32705;SDS011;19094;50.972;3.538;2022-12-07T11:56:27;9.85;;;2.95;;
32705;SDS011;19094;50.972;3.538;2022-12-07T11:58:59;13.02;;;3.40;;
32705;SDS011;19094;50.972;3.538;2022-12-07T12:07:15;12.30;;;4.10;;
32705;SDS011;19094;50.972;3.538;2022-12-07T12:09:55;13.82;;;3.20;;
32705;SDS011;19094;50.972;3.538;2022-12-07T12:25:46;10.50;;;3.13;;
32705;SDS011;19094;50.972;3.538;2022-12-07T12:28:27;10.60;;;3.42;;
32705;SDS011;19094;50.972;3.538;2022-12-07T12:33:51;5.57;;;1.15;;
32705;SDS011;19094;50.972;3.538;2022-12-07T12:51:46;7.95;;;1.40;;
32705;SDS011;19094;50.972;3.538;2022-12-07T12:54:38;6.22;;;2.78;;
32705;SDS011;19094;50.972;3.538;2022-12-07T12:57:24;8.35;;;2.95;;
32705;SDS011;19094;50.972;3.538;2022-12-07T13:05:00;8.75;;;2.63;;
32705;SDS011;19094;50.972;3.538;2022-12-07T13:28:38;6.40;;;2.53;;
32705;SDS011;19094;50.972;3.538;2022-12-07T13:33:38;6.63;;;2.88;;
32705;SDS011;19094;50.972;3.538;2022-12-07T13:36:04;10.02;;;2.78;;
32705;SDS011;19094;50.972;3.538;2022-12-07T13:38:37;9.75;;;3.63;;
32705;SDS011;19094;50.972;3.538;2022-12-07T13:43:45;5.75;;;2.20;;
32705;SDS011;19094;50.972;3.538;2022-12-07T13:49:31;12.27;;;3.33;;
32705;SDS011;19094;50.972;3.538;2022-12-07T13:52:15;11.60;;;3.05;;
32705;SDS011;19094;50.972;3.538;2022-12-07T13:54:48;9.20;;;2.65;;
32705;SDS011;19094;50.972;3.538;2022-12-07T13:57:26;13.52;;;3.33;;
32705;SDS011;19094;50.972;3.538;2022-12-07T13:59:54;8.07;;;2.65;;
32705;SDS011;19094;50.972;3.538;2022-12-07T14:02:21;8.43;;;2.17;;
32705;SDS011;19094;50.972;3.538;2022-12-07T14:04:50;14.38;;;3.33;;
32705;SDS011;19094;50.972;3.538;2022-12-07T14:07:26;11.65;;;3.35;;
32705;SDS011;19094;50.972;3.538;2022-12-07T14:10:05;12.18;;;4.97;;
32705;SDS011;19094;50.972;3.538;2022-12-07T14:15:32;8.25;;;3.60;;
32705;SDS011;19094;50.972;3.538;2022-12-07T14:18:00;9.80;;;1.33;;
32705;SDS011;19094;50.972;3.538;2022-12-07T14:20:38;7.60;;;1.80;;
32705;SDS011;19094;50.972;3.538;2022-12-07T14:23:06;5.93;;;1.10;;
32705;SDS011;19094;50.972;3.538;2022-12-07T14:25:52;8.73;;;1.83;;
32705;SDS011;19094;50.972;3.538;2022-12-07T14:28:26;5.15;;;1.40;;
32705;SDS011;19094;50.972;3.538;2022-12-07T14:30:53;5.47;;;1.50;;
32705;SDS011;19094;50.972;3.538;2022-12-07T14:33:19;10.10;;;1.73;;
32705;SDS011;19094;50.972;3.538;2022-12-07T14:35:46;8.40;;;1.83;;
32705;SDS011;19094;50.972;3.538;2022-12-07T14:38:11;8.13;;;2.33;;
32705;SDS011;19094;50.972;3.538;2022-12-07T14:40:37;20.90;;;3.13;;
32705;SDS011;19094;50.972;3.538;2022-12-07T14:43:13;5.13;;;1.92;;
32705;SDS011;19094;50.972;3.538;2022-12-07T14:45:40;5.25;;;2.30;;
32705;SDS011;19094;50.972;3.538;2022-12-07T14:48:10;8.25;;;2.20;;
32705;SDS011;19094;50.972;3.538;2022-12-07T14:50:41;5.75;;;2.30;;
32705;SDS011;19094;50.972;3.538;2022-12-07T14:53:13;10.50;;;2.13;;
32705;SDS011;19094;50.972;3.538;2022-12-07T14:55:41;9.23;;;2.30;;
32705;SDS011;19094;50.972;3.538;2022-12-07T14:58:13;9.10;;;2.80;;
32705;SDS011;19094;50.972;3.538;2022-12-07T15:00:41;16.60;;;4.50;;
32705;SDS011;19094;50.972;3.538;2022-12-07T15:03:07;18.60;;;6.53;;
32705;SDS011;19094;50.972;3.538;2022-12-07T15:05:33;9.50;;;4.53;;
32705;SDS011;19094;50.972;3.538;2022-12-07T15:07:59;10.80;;;3.72;;
32705;SDS011;19094;50.972;3.538;2022-12-07T15:10:26;15.07;;;4.97;;
32705;SDS011;19094;50.972;3.538;2022-12-07T15:12:56;22.15;;;6.95;;
32705;SDS011;19094;50.972;3.538;2022-12-07T15:15:49;16.33;;;4.93;;
32705;SDS011;19094;50.972;3.538;2022-12-07T15:18:16;15.15;;;4.75;;
32705;SDS011;19094;50.972;3.538;2022-12-07T15:20:43;15.02;;;5.30;;
32705;SDS011;19094;50.972;3.538;2022-12-07T15:23:09;15.98;;;5.07;;
32705;SDS011;19094;50.972;3.538;2022-12-07T15:25:36;14.70;;;5.45;;
32705;SDS011;19094;50.972;3.538;2022-12-07T15:28:02;12.40;;;4.57;;
32705;SDS011;19094;50.972;3.538;2022-12-07T15:30:27;13.02;;;5.65;;
32705;SDS011;19094;50.972;3.538;2022-12-07T15:32:53;12.60;;;5.40;;
32705;SDS011;19094;50.972;3.538;2022-12-07T15:35:19;15.07;;;6.15;;
32705;SDS011;19094;50.972;3.538;2022-12-07T15:37:46;16.30;;;5.93;;
32705;SDS011;19094;50.972;3.538;2022-12-07T15:40:12;12.30;;;5.40;;
32705;SDS011;19094;50.972;3.538;2022-12-07T15:42:38;13.63;;;5.43;;
32705;SDS011;19094;50.972;3.538;2022-12-07T15:45:05;17.15;;;4.63;;
32705;SDS011;19094;50.972;3.538;2022-12-07T15:47:36;13.88;;;5.18;;
32705;SDS011;19094;50.972;3.538;2022-12-07T15:50:05;11.73;;;5.15;;
32705;SDS011;19094;50.972;3.538;2022-12-07T15:52:32;13.18;;;5.30;;
32705;SDS011;19094;50.972;3.538;2022-12-07T15:54:58;14.70;;;4.68;;
32705;SDS011;19094;50.972;3.538;2022-12-07T15:57:25;10.15;;;4.47;;
32705;SDS011;19094;50.972;3.538;2022-12-07T15:59:51;8.32;;;4.50;;
32705;SDS011;19094;50.972;3.538;2022-12-07T16:02:18;13.98;;;5.88;;
32705;SDS011;19094;50.972;3.538;2022-12-07T16:04:44;15.23;;;5.82;;
32705;SDS011;19094;50.972;3.538;2022-12-07T16:07:10;14.25;;;4.95;;
32705;SDS011;19094;50.972;3.538;2022-12-07T16:09:36;13.52;;;5.40;;
32705;SDS011;19094;50.972;3.538;2022-12-07T16:12:03;15.02;;;6.15;;
32705;SDS011;19094;50.972;3.538;2022-12-07T16:14:29;13.45;;;6.28;;
32705;SDS011;19094;50.972;3.538;2022-12-07T16:16:57;17.50;;;5.53;;
32705;SDS011;19094;50.972;3.538;2022-12-07T16:19:22;17.48;;;5.53;;
32705;SDS011;19094;50.972;3.538;2022-12-07T16:21:48;13.55;;;6.15;;
32705;SDS011;19094;50.972;3.538;2022-12-07T16:24:14;15.90;;;5.55;;
32705;SDS011;19094;50.972;3.538;2022-12-07T16:26:40;16.30;;;5.78;;
32705;SDS011;19094;50.972;3.538;2022-12-07T16:29:06;13.63;;;5.13;;
32705;SDS011;19094;50.972;3.538;2022-12-07T16:31:31;13.90;;;5.30;;
32705;SDS011;19094;50.972;3.538;2022-12-07T16:33:58;13.70;;;5.20;;
32705;SDS011;19094;50.972;3.538;2022-12-07T16:36:24;15.60;;;4.63;;
32705;SDS011;19094;50.972;3.538;2022-12-07T16:38:52;11.02;;;4.63;;
32705;SDS011;19094;50.972;3.538;2022-12-07T16:41:18;13.25;;;5.15;;
32705;SDS011;19094;50.972;3.538;2022-12-07T16:43:44;10.93;;;5.07;;
32705;SDS011;19094;50.972;3.538;2022-12-07T16:46:09;14.43;;;5.53;;
32705;SDS011;19094;50.972;3.538;2022-12-07T16:48:36;9.45;;;5.50;;
32705;SDS011;19094;50.972;3.538;2022-12-07T16:51:03;21.20;;;6.15;;
32705;SDS011;19094;50.972;3.538;2022-12-07T16:53:30;19.55;;;8.43;;
32705;SDS011;19094;50.972;3.538;2022-12-07T16:55:56;15.70;;;7.40;;
32705;SDS011;19094;50.972;3.538;2022-12-07T16:58:21;16.27;;;7.28;;
32705;SDS011;19094;50.972;3.538;2022-12-07T17:00:47;16.60;;;8.95;;
32705;SDS011;19094;50.972;3.538;2022-12-07T17:03:13;13.00;;;6.13;;
32705;SDS011;19094;50.972;3.538;2022-12-07T17:05:40;14.43;;;5.88;;
32705;SDS011;19094;50.972;3.538;2022-12-07T17:08:07;13.60;;;5.28;;
32705;SDS011;19094;50.972;3.538;2022-12-07T17:10:34;12.90;;;5.05;;
32705;SDS011;19094;50.972;3.538;2022-12-07T17:13:02;18.48;;;7.25;;
32705;SDS011;19094;50.972;3.538;2022-12-07T17:15:56;18.00;;;6.68;;
32705;SDS011;19094;50.972;3.538;2022-12-07T17:18:27;19.27;;;7.13;;
32705;SDS011;19094;50.972;3.538;2022-12-07T17:20:54;18.38;;;6.22;;
32705;SDS011;19094;50.972;3.538;2022-12-07T17:23:20;12.55;;;6.03;;
32705;SDS011;19094;50.972;3.538;2022-12-07T17:25:46;17.40;;;7.03;;
32705;SDS011;19094;50.972;3.538;2022-12-07T17:28:12;14.23;;;5.65;;
32705;SDS011;19094;50.972;3.538;2022-12-07T17:30:38;10.65;;;3.67;;
32705;SDS011;19094;50.972;3.538;2022-12-07T17:33:04;12.23;;;5.07;;